Time;durP1;ratioP1;P1;durP2;ratioP2;P2;SDS_P1;SDS_P2;PMS_P1;PMS_P2;Temp;Humidity;BMP_temperature;BMP_pressure;BME280_temperature;BME280_humidity;BME280_pressure;Samples;Min_cycle;Max_cycle;Signal;HPM_P1;HPM_P2
2021/10/29 00:01:54;;;;;;;29.65;16.13;;;3.70;99.90;;;;;;5008600;28;20218;-77
2021/10/29 00:04:20;;;;;;;27.58;17.80;;;3.70;99.90;;;;;;5008658;28;20178;-77
2021/10/29 00:06:46;;;;;;;32.92;16.67;;;3.70;99.90;;;;;;5010040;28;20179;-77
2021/10/29 00:09:12;;;;;;;26.98;16.10;;;3.70;99.90;;;;;;5009875;28;20352;-77
2021/10/29 00:11:38;;;;;;;24.92;14.18;;;3.70;99.90;;;;;;5008687;28;20171;-75
2021/10/29 00:14:04;;;;;;;28.38;15.30;;;3.60;99.90;;;;;;5009916;28;20159;-76
2021/10/29 00:16:30;;;;;;;25.17;14.95;;;3.60;99.90;;;;;;5024474;28;20178;-76
2021/10/29 00:18:55;;;;;;;26.27;15.63;;;3.60;99.90;;;;;;5028340;28;20257;-76
2021/10/29 00:21:21;;;;;;;29.92;15.32;;;3.70;99.90;;;;;;5028685;28;20241;-77
2021/10/29 00:23:47;;;;;;;23.30;13.70;;;3.70;99.90;;;;;;5028677;28;20170;-76
2021/10/29 00:26:14;;;;;;;24.70;15.45;;;3.80;99.90;;;;;;5028596;28;20180;-76
2021/10/29 00:28:40;;;;;;;31.25;14.65;;;3.80;99.90;;;;;;5029700;28;20220;-76
2021/10/29 00:31:05;;;;;;;25.15;15.15;;;3.80;99.90;;;;;;5028346;28;20205;-76
2021/10/29 00:33:31;;;;;;;27.38;15.40;;;3.80;99.90;;;;;;5029473;28;20667;-77
2021/10/29 00:35:57;;;;;;;23.05;15.45;;;3.80;99.90;;;;;;5028144;28;20197;-76
2021/10/29 00:38:23;;;;;;;31.63;15.50;;;3.80;99.90;;;;;;5028061;28;20205;-76
2021/10/29 00:40:49;;;;;;;28.75;15.32;;;3.80;99.90;;;;;;5029403;28;20221;-77
2021/10/29 00:43:15;;;;;;;29.55;15.40;;;3.90;99.90;;;;;;5029322;28;20204;-76
2021/10/29 00:45:41;;;;;;;25.05;13.82;;;3.90;99.90;;;;;;5028061;28;20180;-76
2021/10/29 00:48:08;;;;;;;24.05;13.75;;;3.90;99.90;;;;;;5029103;28;20190;-75
2021/10/29 00:50:35;;;;;;;21.08;13.23;;;3.90;99.90;;;;;;5027923;28;20174;-76
2021/10/29 00:53:02;;;;;;;25.75;14.35;;;3.90;99.90;;;;;;5029485;28;20228;-77
2021/10/29 00:55:29;;;;;;;25.70;14.50;;;3.80;99.90;;;;;;5029623;28;20185;-77
2021/10/29 00:57:54;;;;;;;27.02;14.10;;;3.80;99.90;;;;;;5027998;28;20631;-78
2021/10/29 01:00:23;;;;;;;23.42;13.13;;;3.70;99.90;;;;;;5027832;28;20186;-78
2021/10/29 01:02:49;;;;;;;26.67;13.30;;;3.60;99.90;;;;;;5040465;28;20266;-78
2021/10/29 01:05:15;;;;;;;19.92;14.48;;;3.60;99.90;;;;;;5027805;28;20216;-78
2021/10/29 01:07:41;;;;;;;19.30;12.00;;;3.60;99.90;;;;;;5027655;28;20249;-78
2021/10/29 01:10:08;;;;;;;25.95;13.73;;;3.50;99.90;;;;;;5027816;28;20194;-78
2021/10/29 01:12:34;;;;;;;22.83;14.40;;;3.50;99.90;;;;;;5029214;28;20158;-78
2021/10/29 01:15:02;;;;;;;26.33;14.23;;;3.50;99.90;;;;;;5028003;28;20177;-78
2021/10/29 01:17:28;;;;;;;27.00;15.73;;;3.50;99.90;;;;;;5044239;28;20177;-78
2021/10/29 01:19:57;;;;;;;25.33;13.82;;;3.50;99.90;;;;;;5028948;28;20563;-77
2021/10/29 01:22:23;;;;;;;25.42;14.73;;;3.50;99.90;;;;;;5044909;28;20229;-76
2021/10/29 01:24:51;;;;;;;25.23;14.07;;;3.50;99.90;;;;;;5044758;28;20277;-77
2021/10/29 01:27:17;;;;;;;25.42;14.50;;;3.50;99.90;;;;;;5029409;28;20245;-80
2021/10/29 01:29:46;;;;;;;27.45;13.75;;;3.50;99.90;;;;;;5028809;28;20220;-79
2021/10/29 01:32:12;;;;;;;25.17;14.35;;;3.50;99.90;;;;;;5046038;28;20174;-79
2021/10/29 01:34:39;;;;;;;25.45;13.30;;;3.50;99.90;;;;;;5032590;28;20178;-77
2021/10/29 01:37:07;;;;;;;25.63;13.23;;;3.50;99.90;;;;;;5032519;28;20158;-76
2021/10/29 01:39:35;;;;;;;22.35;13.55;;;3.50;99.90;;;;;;5031254;28;20205;-77
2021/10/29 01:42:02;;;;;;;22.05;13.88;;;3.50;99.90;;;;;;5032767;28;20170;-77
2021/10/29 01:44:28;;;;;;;20.25;13.10;;;3.50;99.90;;;;;;5032522;28;20166;-76
2021/10/29 01:46:54;;;;;;;22.48;13.65;;;3.40;99.90;;;;;;5032356;28;20184;-76
2021/10/29 01:49:21;;;;;;;25.35;12.93;;;3.40;99.90;;;;;;5031464;28;20277;-76
2021/10/29 01:51:47;;;;;;;24.13;14.38;;;3.30;99.90;;;;;;5032256;28;20162;-77
2021/10/29 01:54:14;;;;;;;24.27;14.35;;;3.30;99.90;;;;;;5032442;28;20186;-78
2021/10/29 01:56:40;;;;;;;20.40;12.18;;;3.30;99.90;;;;;;5032869;28;20150;-77
2021/10/29 01:59:07;;;;;;;23.83;12.18;;;3.20;99.90;;;;;;5031799;28;20224;-75
2021/10/29 02:01:33;;;;;;;20.23;12.63;;;3.20;99.90;;;;;;5030676;28;20659;-76
2021/10/29 02:03:59;;;;;;;23.98;13.30;;;3.20;99.90;;;;;;5030806;28;20174;-75
2021/10/29 02:06:25;;;;;;;26.35;15.32;;;3.10;99.90;;;;;;5031921;28;20162;-76
2021/10/29 02:08:51;;;;;;;22.75;12.82;;;3.20;99.90;;;;;;5030522;28;20240;-76
2021/10/29 02:11:17;;;;;;;24.80;13.30;;;3.20;99.90;;;;;;5030482;28;20588;-76
2021/10/29 02:13:43;;;;;;;23.55;14.57;;;3.10;99.90;;;;;;5031736;28;20184;-75
2021/10/29 02:16:10;;;;;;;26.83;12.63;;;3.10;99.90;;;;;;5030456;28;20174;-76
2021/10/29 02:18:37;;;;;;;29.70;13.77;;;3.10;99.90;;;;;;5031570;28;20208;-75
2021/10/29 02:21:03;;;;;;;23.25;13.93;;;3.10;99.90;;;;;;5030463;28;20174;-78
2021/10/29 02:23:30;;;;;;;25.13;13.30;;;3.10;99.90;;;;;;5030227;28;20185;-77
2021/10/29 02:25:57;;;;;;;27.00;13.90;;;3.10;99.90;;;;;;5031595;28;20173;-76
2021/10/29 02:28:23;;;;;;;28.35;14.52;;;3.00;99.90;;;;;;5030011;28;20232;-75
2021/10/29 02:30:50;;;;;;;23.55;14.00;;;2.90;99.90;;;;;;5031472;28;20154;-76
2021/10/29 02:33:18;;;;;;;27.42;16.40;;;2.90;99.90;;;;;;5029843;28;20232;-76
2021/10/29 02:35:45;;;;;;;28.70;17.95;;;2.70;99.90;;;;;;5031163;28;20170;-76
2021/10/29 02:38:12;;;;;;;25.38;15.35;;;2.50;99.90;;;;;;5029847;28;20552;-78
2021/10/29 02:40:38;;;;;;;28.90;16.67;;;2.40;99.90;;;;;;5031001;28;20248;-79
2021/10/29 02:43:05;;;;;;;28.02;16.70;;;2.30;99.90;;;;;;5030071;28;20186;-79
2021/10/29 02:45:31;;;;;;;30.02;16.27;;;2.30;99.90;;;;;;5031085;28;20154;-78
2021/10/29 02:47:57;;;;;;;26.10;16.55;;;2.30;99.90;;;;;;5029627;28;20226;-77
2021/10/29 02:50:24;;;;;;;24.35;15.10;;;2.40;99.90;;;;;;5029855;28;20166;-78
2021/10/29 02:52:50;;;;;;;30.65;15.63;;;2.40;99.90;;;;;;5031233;28;20162;-78
2021/10/29 02:55:17;;;;;;;25.88;14.27;;;2.40;99.90;;;;;;5029752;28;20704;-78
2021/10/29 02:57:45;;;;;;;26.58;14.82;;;2.50;99.90;;;;;;5030975;28;20169;-76
2021/10/29 03:00:14;;;;;;;25.00;14.02;;;2.50;99.90;;;;;;5029424;28;20193;-76
2021/10/29 03:02:42;;;;;;;27.52;17.30;;;2.50;99.90;;;;;;5029499;28;20221;-77
2021/10/29 03:05:09;;;;;;;24.38;14.05;;;2.50;99.90;;;;;;5026479;28;20198;-76
2021/10/29 03:07:35;;;;;;;21.85;14.57;;;2.40;99.90;;;;;;5029311;28;20172;-76
2021/10/29 03:10:03;;;;;;;22.40;14.23;;;2.40;99.90;;;;;;5029483;28;20193;-80
2021/10/29 03:12:29;;;;;;;21.67;13.52;;;2.40;99.90;;;;;;5029549;28;20162;-77
2021/10/29 03:14:55;;;;;;;25.60;14.57;;;2.30;99.90;;;;;;5030600;28;20189;-77
2021/10/29 03:17:21;;;;;;;21.77;14.23;;;2.30;99.90;;;;;;5030377;28;20215;-77
2021/10/29 03:19:47;;;;;;;28.25;15.82;;;2.30;99.90;;;;;;5030481;28;20200;-75
2021/10/29 03:22:13;;;;;;;28.67;14.60;;;2.30;99.90;;;;;;5029195;28;20185;-77
2021/10/29 03:24:39;;;;;;;25.60;16.13;;;2.20;99.90;;;;;;5029308;28;20221;-77
2021/10/29 03:27:05;;;;;;;32.40;16.42;;;2.20;99.90;;;;;;5029068;28;20312;-76
2021/10/29 03:29:31;;;;;;;30.98;16.17;;;2.20;99.90;;;;;;5028894;28;20273;-76
2021/10/29 03:31:56;;;;;;;22.60;14.68;;;2.20;99.90;;;;;;5030214;28;20194;-77
2021/10/29 03:34:22;;;;;;;24.10;16.15;;;2.10;99.90;;;;;;5029008;28;20169;-76
2021/10/29 03:36:49;;;;;;;30.58;14.38;;;2.00;99.90;;;;;;5030380;28;20169;-76
2021/10/29 03:39:21;;;;;;;23.08;14.70;;;2.00;99.90;;;;;;5028776;28;20225;-78
2021/10/29 03:41:54;;;;;;;23.13;15.13;;;2.00;99.90;;;;;;5030180;28;20249;-78
2021/10/29 03:44:43;;;;;;;25.48;14.85;;;2.10;99.90;;;;;;5030132;28;20169;-78
2021/10/29 03:47:11;;;;;;;24.95;14.88;;;2.00;99.90;;;;;;5029727;28;20166;-80
2021/10/29 03:49:47;;;;;;;26.27;16.73;;;1.90;99.90;;;;;;5028462;28;20213;-77
2021/10/29 03:54:39;;;;;;;25.95;15.98;;;1.80;99.90;;;;;;5029788;28;20155;-76
2021/10/29 03:59:31;;;;;;;24.05;15.93;;;1.80;99.90;;;;;;5029691;28;20247;-78
2021/10/29 04:01:57;;;;;;;22.30;14.48;;;1.80;99.90;;;;;;5028334;28;20228;-76
2021/10/29 04:04:23;;;;;;;23.85;14.90;;;1.80;99.90;;;;;;5028450;28;20170;-76
2021/10/29 04:06:50;;;;;;;22.70;15.82;;;1.80;99.90;;;;;;5029979;28;20166;-79
2021/10/29 04:09:16;;;;;;;29.00;16.77;;;1.70;99.90;;;;;;5028047;28;20205;-76
2021/10/29 04:11:43;;;;;;;27.95;16.63;;;1.70;99.90;;;;;;5029638;28;20188;-78
2021/10/29 04:14:11;;;;;;;34.83;18.10;;;1.70;99.90;;;;;;5028152;28;20166;-79
2021/10/29 04:16:39;;;;;;;57.80;28.02;;;1.70;99.90;;;;;;5029219;28;20154;-78
2021/10/29 04:19:07;;;;;;;41.88;24.08;;;1.60;99.90;;;;;;5029303;28;20200;-78
2021/10/29 04:21:35;;;;;;;39.83;20.88;;;1.50;99.90;;;;;;5029540;28;20619;-77
2021/10/29 04:24:01;;;;;;;36.47;20.40;;;1.40;99.90;;;;;;5028431;28;20542;-78
2021/10/29 04:26:27;;;;;;;39.80;21.00;;;1.30;99.90;;;;;;5028150;28;20273;-78
2021/10/29 04:28:56;;;;;;;42.85;21.33;;;1.40;99.90;;;;;;5027961;28;20225;-78
2021/10/29 04:31:26;;;;;;;37.17;20.30;;;1.50;99.90;;;;;;5028052;28;20174;-78
2021/10/29 04:33:52;;;;;;;30.52;15.88;;;1.60;99.90;;;;;;5028139;28;20205;-78
2021/10/29 04:36:19;;;;;;;38.97;20.50;;;1.60;99.90;;;;;;5029266;28;20159;-78
2021/10/29 04:38:46;;;;;;;34.65;17.10;;;1.70;99.90;;;;;;5029137;28;20196;-79
2021/10/29 04:41:13;;;;;;;29.92;18.27;;;1.60;99.90;;;;;;5027895;28;20202;-78
2021/10/29 04:43:40;;;;;;;30.13;17.33;;;1.60;99.90;;;;;;5027845;28;20205;-78
2021/10/29 04:46:06;;;;;;;35.28;18.65;;;1.60;99.90;;;;;;5029259;28;20162;-78
2021/10/29 04:48:33;;;;;;;37.70;18.77;;;1.70;99.90;;;;;;5027679;28;20216;-75
2021/10/29 04:50:59;;;;;;;31.42;17.25;;;1.60;99.90;;;;;;5028653;28;20154;-79
2021/10/29 04:53:25;;;;;;;33.70;18.02;;;1.50;99.90;;;;;;5027539;28;20170;-76
2021/10/29 04:55:51;;;;;;;33.33;18.48;;;1.50;99.90;;;;;;5027672;28;20177;-77
2021/10/29 04:58:17;;;;;;;37.17;18.58;;;1.50;99.90;;;;;;5027717;28;20197;-76
2021/10/29 05:00:43;;;;;;;33.13;17.30;;;1.40;99.90;;;;;;5029259;28;20162;-76
2021/10/29 05:03:09;;;;;;;29.05;16.10;;;1.30;99.90;;;;;;5047764;28;20249;-75
2021/10/29 05:05:36;;;;;;;34.25;15.15;;;1.30;99.90;;;;;;5031447;28;20184;-76
2021/10/29 05:08:06;;;;;;;28.95;18.00;;;1.20;99.90;;;;;;5052172;28;20777;-78
2021/10/29 05:10:33;;;;;;;49.13;17.42;;;1.10;99.90;;;;;;5052716;28;20626;-76
2021/10/29 05:12:59;;;;;;;29.23;16.08;;;1.00;99.90;;;;;;5052395;28;20614;-76
2021/10/29 05:15:26;;;;;;;31.20;16.60;;;1.00;99.90;;;;;;5034128;28;20169;-76
2021/10/29 05:17:55;;;;;;;25.55;15.27;;;1.10;99.90;;;;;;5052322;28;20220;-77
2021/10/29 05:20:21;;;;;;;29.77;16.73;;;1.30;99.90;;;;;;5052427;28;20150;-75
2021/10/29 05:22:47;;;;;;;33.70;17.17;;;1.40;99.90;;;;;;5052268;28;20213;-76
2021/10/29 05:25:13;;;;;;;24.85;15.80;;;1.60;99.90;;;;;;5051945;28;20528;-76
2021/10/29 05:27:40;;;;;;;31.48;17.33;;;1.70;99.90;;;;;;5034023;28;20170;-76
2021/10/29 05:30:08;;;;;;;30.75;17.15;;;1.80;99.90;;;;;;5034970;28;20614;-76
2021/10/29 05:32:35;;;;;;;26.23;16.23;;;1.80;99.90;;;;;;5033792;28;20204;-77
2021/10/29 05:35:02;;;;;;;29.52;18.50;;;1.80;99.90;;;;;;5052032;28;20154;-76
2021/10/29 05:37:32;;;;;;;27.10;16.90;;;1.90;99.90;;;;;;5052195;28;20203;-76
2021/10/29 05:40:00;;;;;;;27.50;16.20;;;2.00;99.90;;;;;;5052060;28;20170;-77
2021/10/29 05:42:27;;;;;;;25.90;15.77;;;2.10;99.90;;;;;;5052075;28;20164;-77
2021/10/29 05:44:54;;;;;;;28.23;18.17;;;2.10;99.90;;;;;;5051825;28;20157;-76
2021/10/29 05:47:21;;;;;;;34.53;17.90;;;2.10;99.90;;;;;;5052052;28;20618;-76
2021/10/29 05:49:48;;;;;;;28.27;15.63;;;2.20;99.90;;;;;;5033561;28;20212;-76
2021/10/29 05:52:22;;;;;;;28.70;16.67;;;2.20;99.90;;;;;;5051617;28;20169;-78
2021/10/29 05:57:30;;;;;;;28.38;16.25;;;2.30;99.90;;;;;;5051946;28;20161;-80
2021/10/29 05:59:56;;;;;;;34.53;17.58;;;2.40;99.90;;;;;;5033607;28;20233;-80
2021/10/29 06:02:22;;;;;;;27.80;16.60;;;2.40;99.90;;;;;;5033456;28;20680;-76
2021/10/29 06:04:48;;;;;;;29.02;17.05;;;2.30;99.90;;;;;;5051579;28;20188;-76
2021/10/29 06:07:15;;;;;;;38.90;17.70;;;2.40;99.90;;;;;;5051540;28;20173;-75
2021/10/29 06:09:41;;;;;;;34.20;19.15;;;2.50;99.90;;;;;;5033534;28;20263;-75
2021/10/29 06:12:07;;;;;;;31.23;17.35;;;2.70;99.90;;;;;;5050974;28;20161;-76
2021/10/29 06:14:35;;;;;;;32.05;18.60;;;2.80;99.90;;;;;;5051407;28;20161;-76
2021/10/29 06:17:02;;;;;;;29.00;17.85;;;2.90;99.90;;;;;;5051060;28;20153;-77
2021/10/29 06:19:29;;;;;;;32.60;17.63;;;3.00;99.90;;;;;;5051147;28;20189;-76
2021/10/29 06:22:43;;;;;;;36.65;18.95;;;3.00;99.90;;;;;;5051459;28;20162;-76
2021/10/29 06:24:41;;;;;;;30.85;17.10;;;2.90;99.90;;;;;;5040316;28;20185;-76
2021/10/29 06:29:48;;;;;;;30.40;17.75;;;3.00;99.90;;;;;;5051258;28;20193;-76
2021/10/29 06:32:20;;;;;;;34.30;20.05;;;3.00;99.90;;;;;;5051192;28;20157;-76
2021/10/29 06:34:46;;;;;;;30.17;18.10;;;3.10;99.90;;;;;;5033416;28;20173;-76
2021/10/29 06:37:16;;;;;;;29.88;18.42;;;3.10;99.90;;;;;;5051037;28;20181;-75
2021/10/29 06:39:44;;;;;;;32.78;19.23;;;3.20;99.90;;;;;;5033042;28;20224;-75
2021/10/29 06:42:15;;;;;;;34.88;20.05;;;3.40;99.90;;;;;;5050768;28;20173;-75
2021/10/29 07:01:17;;;;;;;37.13;20.25;;;4.00;99.90;;;;;;5050147;28;20587;-76
2021/10/29 07:41:58;;;;;;;34.15;18.95;;;7.20;99.90;;;;;;5049394;28;20168;-79
2021/10/29 07:44:28;;;;;;;28.58;16.73;;;7.50;99.90;;;;;;5031028;28;20610;-79
2021/10/29 07:46:55;;;;;;;31.17;18.00;;;7.90;99.90;;;;;;5049107;28;20154;-78
2021/10/29 07:49:27;;;;;;;27.48;17.45;;;8.10;99.90;;;;;;5048816;28;20232;-76
2021/10/29 07:51:54;;;;;;;28.50;15.65;;;7.90;99.90;;;;;;5048590;28;20181;-78
2021/10/29 07:54:22;;;;;;;30.48;16.80;;;7.80;99.90;;;;;;5030864;28;20162;-79
2021/10/29 07:56:50;;;;;;;30.73;17.45;;;8.10;99.90;;;;;;5030859;28;20170;-77
2021/10/29 07:59:21;;;;;;;31.85;16.02;;;8.40;99.90;;;;;;5048555;28;20251;-78
2021/10/29 08:01:48;;;;;;;33.72;17.50;;;8.60;99.90;;;;;;4983890;28;1274182;-78
2021/10/29 08:04:18;;;;;;;28.15;16.23;;;9.20;99.90;;;;;;5028465;28;20273;-79
2021/10/29 08:06:44;;;;;;;25.48;14.80;;;9.60;99.90;;;;;;5028706;28;20189;-78
2021/10/29 08:09:11;;;;;;;27.00;15.23;;;10.00;99.90;;;;;;5028598;28;20300;-79
2021/10/29 08:11:37;;;;;;;29.17;15.85;;;11.10;99.90;;;;;;5029875;28;20154;-79
2021/10/29 08:14:03;;;;;;;21.17;13.13;;;12.60;99.90;;;;;;5029948;28;20150;-80
2021/10/29 08:16:29;;;;;;;23.98;13.75;;;13.50;99.90;;;;;;5028646;28;20238;-80
2021/10/29 08:18:55;;;;;;;21.67;13.80;;;14.70;99.90;;;;;;5029806;28;20186;-78
2021/10/29 08:21:21;;;;;;;20.13;13.30;;;15.50;99.90;;;;;;5029464;28;20150;-78
2021/10/29 08:23:47;;;;;;;22.55;14.98;;;16.10;99.90;;;;;;5028717;28;20174;-76
2021/10/29 08:26:13;;;;;;;24.55;14.32;;;16.10;99.90;;;;;;5028772;28;20233;-73
2021/10/29 08:28:40;;;;;;;23.25;13.60;;;15.40;99.90;;;;;;5029681;28;20194;-78
2021/10/29 08:31:07;;;;;;;26.05;14.82;;;15.40;99.90;;;;;;5029779;28;20163;-76
2021/10/29 08:33:33;;;;;;;24.27;14.80;;;15.40;99.90;;;;;;5029418;28;20169;-76
2021/10/29 08:36:01;;;;;;;22.67;14.10;;;14.70;99.90;;;;;;5028065;28;20175;-74
2021/10/29 08:38:27;;;;;;;21.77;12.65;;;15.00;99.90;;;;;;5029175;28;20200;-75
2021/10/29 08:40:54;;;;;;;23.80;15.07;;;15.60;99.90;;;;;;5028260;28;20173;-75
2021/10/29 08:43:20;;;;;;;23.55;14.07;;;15.50;99.90;;;;;;5027956;28;20205;-76
2021/10/29 08:45:47;;;;;;;23.15;13.95;;;16.00;99.90;;;;;;5027641;28;20173;-76
2021/10/29 08:48:13;;;;;;;19.60;13.27;;;16.60;99.90;;;;;;5029022;28;20213;-75
2021/10/29 08:50:39;;;;;;;18.42;13.45;;;17.40;99.90;;;;;;5028150;28;20165;-76
2021/10/29 08:53:06;;;;;;;20.40;13.10;;;17.80;99.90;;;;;;5027755;28;20166;-76
2021/10/29 08:55:34;;;;;;;26.60;14.10;;;17.30;99.90;;;;;;5028878;28;20166;-76
2021/10/29 08:58:04;;;;;;;22.60;13.80;;;16.10;99.90;;;;;;5028827;28;20558;-76
2021/10/29 09:00:34;;;;;;;24.83;14.73;;;16.50;99.90;;;;;;5027570;28;20166;-76
2021/10/29 09:03:11;;;;;;;21.38;14.43;;;17.10;99.90;;;;;;5045944;28;20220;-76
2021/10/29 09:05:55;;;;;;;20.85;13.57;;;17.40;99.90;;;;;;5048622;28;20173;-75
2021/10/29 09:08:34;;;;;;;20.00;13.52;;;17.70;99.90;;;;;;5030696;28;20243;-76
2021/10/29 09:33:05;;;;;;;19.65;13.52;;;17.90;99.90;;;;;;5048481;28;20156;-75
2021/10/29 09:35:35;;;;;;;21.05;13.00;;;17.60;99.90;;;;;;5048354;28;20146;-74
2021/10/29 09:38:05;;;;;;;22.02;13.38;;;16.90;99.90;;;;;;5048158;28;20252;-74
2021/10/29 09:40:34;;;;;;;23.98;13.27;;;16.10;99.90;;;;;;5030042;28;20173;-75
2021/10/29 09:43:14;;;;;;;21.98;13.98;;;16.40;99.90;;;;;;5030540;28;20173;-75
2021/10/29 09:46:12;;;;;;;22.77;14.30;;;17.10;99.90;;;;;;5047921;28;20175;-74
2021/10/29 09:48:51;;;;;;;23.73;13.57;;;15.40;99.90;;;;;;5047574;28;20776;-75
2021/10/29 09:51:21;;;;;;;23.60;15.63;;;14.70;99.90;;;;;;5047966;28;20162;-74
2021/10/29 09:54:38;;;;;;;21.13;13.88;;;16.10;99.90;;;;;;5050751;28;20189;-73
2021/10/29 09:56:47;;;;;;;20.10;14.70;;;15.70;99.90;;;;;;5039842;28;20177;-74
2021/10/29 09:59:13;;;;;;;23.90;14.77;;;14.80;99.90;;;;;;5033248;28;20197;-73
2021/10/29 10:01:40;;;;;;;25.20;14.70;;;14.60;99.90;;;;;;5029912;28;20611;-73
2021/10/29 10:04:07;;;;;;;24.55;14.85;;;14.00;99.90;;;;;;5030180;28;20249;-74
2021/10/29 10:06:39;;;;;;;23.40;14.70;;;13.50;99.90;;;;;;5031464;28;20222;-73
2021/10/29 10:09:09;;;;;;;23.42;14.57;;;13.20;99.90;;;;;;5028931;28;20698;-73
2021/10/29 10:11:42;;;;;;;31.33;14.20;;;14.20;99.90;;;;;;5031399;28;20174;-74
2021/10/29 10:14:09;;;;;;;22.73;14.05;;;14.50;99.90;;;;;;5030854;28;20154;-74
2021/10/29 10:16:39;;;;;;;22.73;14.32;;;14.40;99.90;;;;;;5031111;28;20194;-74
2021/10/29 10:19:07;;;;;;;20.55;14.10;;;14.40;99.90;;;;;;5031346;28;20205;-73
2021/10/29 10:21:39;;;;;;;22.48;13.70;;;13.10;99.90;;;;;;5022571;28;20220;-73
2021/10/29 10:24:15;;;;;;;21.70;13.88;;;12.60;99.90;;;;;;5024974;28;20282;-74
2021/10/29 10:26:55;;;;;;;20.55;13.18;;;13.20;99.90;;;;;;5029986;28;20219;-74
2021/10/29 10:48:30;;;;;;;19.70;14.10;;;15.00;99.90;;;;;;5050803;28;20192;-74
2021/10/29 10:54:45;;;;;;;19.77;13.48;;;16.30;99.90;;;;;;5050933;28;20256;-74
2021/10/29 10:59:51;;;;;;;21.05;13.30;;;17.30;99.90;;;;;;5050933;28;20216;-74
2021/10/29 11:02:39;;;;;;;18.00;13.18;;;16.50;99.90;;;;;;5048874;28;20296;-74
2021/10/29 11:10:11;;;;;;;21.63;13.85;;;16.80;99.90;;;;;;5050507;28;20193;-74
2021/10/29 11:12:43;;;;;;;19.80;12.38;;;15.70;99.90;;;;;;5048974;28;20173;-74
2021/10/29 11:15:11;;;;;;;20.40;12.27;;;16.10;99.90;;;;;;5048633;28;20193;-73
2021/10/29 11:17:59;;;;;;;21.40;14.10;;;16.30;99.90;;;;;;5050174;28;20153;-75
2021/10/29 11:23:32;;;;;;;19.05;13.95;;;15.70;99.90;;;;;;5050175;28;20181;-74
2021/10/29 11:26:05;;;;;;;18.58;14.15;;;15.80;99.90;;;;;;5046350;28;20209;-75
2021/10/29 11:28:44;;;;;;;20.63;13.27;;;16.70;99.90;;;;;;5047913;28;20201;-74
2021/10/29 11:31:18;;;;;;;18.63;12.65;;;17.50;99.90;;;;;;5049538;28;20185;-74
2021/10/29 11:33:50;;;;;;;22.48;13.38;;;18.30;99.90;;;;;;5049936;28;20283;-74
2021/10/29 11:36:29;;;;;;;19.38;13.48;;;16.80;99.90;;;;;;5049985;28;20176;-74
2021/10/29 11:38:55;;;;;;;19.63;13.30;;;15.60;99.90;;;;;;5049677;28;20219;-74
2021/10/29 11:41:27;;;;;;;19.70;12.32;;;15.60;99.90;;;;;;5049227;28;20173;-74
2021/10/29 11:44:06;;;;;;;22.65;12.77;;;15.90;99.90;;;;;;5048435;28;20208;-74
2021/10/29 11:46:33;;;;;;;22.10;13.73;;;16.00;99.90;;;;;;5050072;28;20207;-74
2021/10/29 11:49:11;;;;;;;22.75;14.75;;;14.90;99.90;;;;;;5047911;28;20258;-73
2021/10/29 11:51:39;;;;;;;18.02;12.30;;;15.10;99.90;;;;;;5049530;28;20158;-74
2021/10/29 11:54:18;;;;;;;17.90;13.52;;;15.50;99.90;;;;;;5048556;28;20201;-75
2021/10/29 12:07:21;;;;;;;21.60;14.00;;;14.20;99.90;;;;;;5069193;28;20175;-74
2021/10/29 12:09:50;;;;;;;22.35;13.45;;;14.70;99.90;;;;;;5068933;28;20196;-74
2021/10/29 12:12:19;;;;;;;20.17;13.60;;;15.30;99.90;;;;;;5069451;28;20161;-73
2021/10/29 12:14:51;;;;;;;19.83;15.07;;;14.60;99.90;;;;;;5067236;28;20426;-74
2021/10/29 12:17:24;;;;;;;20.80;15.40;;;13.70;99.90;;;;;;5048539;28;20174;-73
2021/10/29 12:19:55;;;;;;;19.00;13.25;;;12.90;99.90;;;;;;5031231;28;20184;-74
2021/10/29 12:25:03;;;;;;;21.35;14.55;;;12.50;99.90;;;;;;5043681;28;20196;-73
2021/10/29 12:27:34;;;;;;;20.90;14.18;;;12.20;99.90;;;;;;5048784;28;20212;-73
2021/10/29 12:30:33;;;;;;;22.35;14.65;;;12.00;99.90;;;;;;5048649;28;20201;-72
2021/10/29 12:51:55;;;;;;;21.10;14.25;;;12.00;99.90;;;;;;5048197;28;20335;-73
2021/10/29 13:04:18;;;;;;;25.45;15.57;;;11.60;99.90;;;;;;5039433;28;20307;-75
2021/10/29 13:06:55;;;;;;;24.98;14.85;;;11.70;99.90;;;;;;5015090;28;20178;-73
2021/10/29 13:09:24;;;;;;;23.38;14.98;;;11.60;99.90;;;;;;5029193;28;20196;-73
2021/10/29 13:12:04;;;;;;;21.95;13.88;;;11.40;99.90;;;;;;5030108;28;20273;-73
2021/10/29 13:14:40;;;;;;;22.42;14.02;;;11.40;99.90;;;;;;5048472;28;20161;-73
2021/10/29 13:17:11;;;;;;;23.85;13.65;;;11.40;99.90;;;;;;5048599;28;20173;-73
2021/10/29 13:19:55;;;;;;;27.00;14.93;;;11.60;99.90;;;;;;5032326;28;20174;-73
2021/10/29 13:51:45;;;;;;;27.45;15.45;;;11.40;99.90;;;;;;5051836;28;20172;-73
2021/10/29 13:54:20;;;;;;;24.55;14.65;;;11.40;99.90;;;;;;5034714;28;20198;-73
2021/10/29 13:57:10;;;;;;;22.60;14.98;;;11.40;99.90;;;;;;5051654;28;20626;-74
2021/10/29 14:16:58;;;;;;;23.85;13.18;;;11.20;99.90;;;;;;5031461;28;20201;-73
2021/10/29 14:30:18;;;;;;;26.73;16.73;;;11.10;99.90;;;;;;5031338;28;20197;-73
2021/10/29 14:42:52;;;;;;;27.00;16.80;;;10.80;99.90;;;;;;5031074;28;20189;-73
2021/10/29 14:45:25;;;;;;;26.30;16.77;;;10.80;99.90;;;;;;5031158;28;20194;-73
2021/10/29 15:04:10;;;;;;;25.20;15.50;;;10.40;99.90;;;;;;5050659;28;20185;-74
2021/10/29 15:28:22;;;;;;;30.55;17.90;;;9.80;99.90;;;;;;5049983;28;20158;-74
2021/10/29 15:30:56;;;;;;;30.42;17.80;;;9.80;99.90;;;;;;5050062;28;20169;-74
2021/10/29 15:41:53;;;;;;;31.05;18.80;;;9.50;99.90;;;;;;5049803;28;20156;-74
2021/10/29 15:44:27;;;;;;;29.98;17.77;;;9.50;99.90;;;;;;5049648;28;20174;-75
2021/10/29 15:47:02;;;;;;;31.27;19.25;;;9.40;99.90;;;;;;5032172;28;20181;-74
2021/10/29 15:49:39;;;;;;;33.30;18.38;;;9.40;99.90;;;;;;5049429;28;20188;-75
2021/10/29 15:52:19;;;;;;;28.83;18.33;;;9.30;99.90;;;;;;5031342;28;20164;-74
2021/10/29 15:55:00;;;;;;;31.08;17.83;;;9.20;99.90;;;;;;5031591;28;20168;-74
2021/10/29 15:57:28;;;;;;;29.83;16.75;;;9.20;99.90;;;;;;5049452;28;20172;-74
2021/10/29 16:18:34;;;;;;;33.63;18.65;;;8.40;99.90;;;;;;5049223;28;20162;-74
2021/10/29 16:20:59;;;;;;;31.15;18.27;;;8.30;99.90;;;;;;5049097;28;20165;-75
2021/10/29 16:23:28;;;;;;;32.97;19.00;;;8.20;99.90;;;;;;5049155;28;20193;-75
2021/10/29 16:26:02;;;;;;;27.90;16.85;;;8.00;99.90;;;;;;5049200;28;20179;-75
2021/10/29 16:28:31;;;;;;;31.10;18.33;;;7.90;99.90;;;;;;5031304;28;20315;-75
2021/10/29 16:30:57;;;;;;;26.08;17.38;;;7.80;99.90;;;;;;5031103;28;20165;-74
2021/10/29 16:33:25;;;;;;;45.47;18.83;;;7.70;99.90;;;;;;5031331;28;20621;-75
2021/10/29 16:35:52;;;;;;;32.97;18.52;;;7.70;99.90;;;;;;5031346;28;20169;-75
2021/10/29 16:38:19;;;;;;;33.08;18.17;;;7.50;99.90;;;;;;5031243;28;20181;-74
2021/10/29 16:40:45;;;;;;;33.75;17.50;;;7.50;99.90;;;;;;5048996;28;20187;-74
2021/10/29 16:43:10;;;;;;;32.05;17.55;;;7.50;99.90;;;;;;5048893;28;20243;-74
2021/10/29 16:45:44;;;;;;;34.35;17.23;;;7.50;99.90;;;;;;5048984;28;20168;-74
2021/10/29 16:48:11;;;;;;;24.40;15.90;;;7.40;99.90;;;;;;5048858;28;20164;-74
2021/10/29 16:50:37;;;;;;;27.05;17.30;;;7.40;99.90;;;;;;5048839;28;20226;-74
2021/10/29 16:53:03;;;;;;;32.38;19.63;;;7.40;99.90;;;;;;5048902;28;20281;-74
2021/10/29 16:55:29;;;;;;;33.40;18.27;;;7.40;99.90;;;;;;5048662;28;20161;-74
2021/10/29 16:57:56;;;;;;;37.25;19.90;;;7.40;99.90;;;;;;5048732;28;20184;-75
2021/10/29 17:00:23;;;;;;;33.97;19.63;;;7.40;99.90;;;;;;5048675;28;20157;-74
2021/10/29 17:02:48;;;;;;;34.83;18.25;;;7.50;99.90;;;;;;5031995;28;20251;-75
2021/10/29 17:05:15;;;;;;;33.22;17.80;;;7.50;99.90;;;;;;5052787;28;20162;-74
2021/10/29 17:07:41;;;;;;;30.15;17.65;;;7.50;99.90;;;;;;5034795;28;20165;-74
2021/10/29 17:10:10;;;;;;;34.95;19.38;;;7.60;99.90;;;;;;5052589;28;20197;-75
2021/10/29 17:12:41;;;;;;;30.73;18.40;;;7.70;99.90;;;;;;5052801;28;20156;-75
2021/10/29 17:15:09;;;;;;;33.05;17.70;;;7.70;99.90;;;;;;5034766;28;20193;-75
2021/10/29 17:17:35;;;;;;;29.48;16.08;;;7.70;99.90;;;;;;5052451;28;20313;-73
2021/10/29 17:20:04;;;;;;;32.03;17.20;;;7.80;99.90;;;;;;5052358;28;20176;-75
2021/10/29 17:22:30;;;;;;;32.13;17.02;;;7.80;99.90;;;;;;5035416;28;20644;-75
2021/10/29 17:24:56;;;;;;;29.92;17.98;;;7.90;99.90;;;;;;5047501;28;20193;-75
2021/10/29 17:27:23;;;;;;;33.00;18.38;;;7.90;99.90;;;;;;5051504;28;20185;-75
2021/10/29 17:29:50;;;;;;;27.88;17.50;;;7.90;99.90;;;;;;5052159;28;20262;-74
2021/10/29 17:32:16;;;;;;;30.75;17.70;;;8.00;99.90;;;;;;5052197;28;20204;-75
2021/10/29 17:34:44;;;;;;;30.70;18.50;;;8.00;99.90;;;;;;5034452;28;20172;-74
2021/10/29 17:37:12;;;;;;;31.90;19.63;;;8.00;99.90;;;;;;5051400;28;20165;-75